Terminal Aerodrome Forecast
Issued by NWS Hastings, NE

Home | Current Version | Previous Version | Text Only | Print | Product List | Glossary On
Versions: 1 2 3 4 5 6 7 8 9 10 11 12 13 14 15 16 17 18 19 20 21 22 23 24 25 26 27 28 29 30 31 32 33 34 35 36 37 38 39 40 41 42 43 44 45 46 47
000
FTUS43 KGID 250540 AAA
TAFGRI
TAF AMD
KGRI 250540Z 2506/2606 17008KT P6SM BKN015 BKN035
     FM250800 19006KT P6SM VCTS BKN010CB OVC030
     FM251100 VRB05KT P6SM VCSH SCT010 BKN030
     FM251300 21010KT P6SM BKN030
     FM260000 VRB05KT P6SM VCTS SCT030CB BKN050=

USA.gov is the U.S. government's official web portal to all federal, state and local government web resources and services.